sensor_id;sensor_type;location;lat;lon;timestamp;P1;durP1;ratioP1;P2;durP2;ratioP2
50821;SDS011;36794;51.212;6.980;2023-08-12T00:00:10;39.83;;;25.10;;
50821;SDS011;36794;51.212;6.980;2023-08-12T00:02:40;42.65;;;27.33;;
50821;SDS011;36794;51.212;6.980;2023-08-12T00:05:06;41.35;;;25.73;;
50821;SDS011;36794;51.212;6.980;2023-08-12T00:07:33;38.38;;;24.92;;
50821;SDS011;36794;51.212;6.980;2023-08-12T00:09:59;49.22;;;26.58;;
50821;SDS011;36794;51.212;6.980;2023-08-12T00:12:26;41.72;;;26.83;;
50821;SDS011;36794;51.212;6.980;2023-08-12T00:14:52;40.65;;;25.85;;
50821;SDS011;36794;51.212;6.980;2023-08-12T00:17:18;41.05;;;25.45;;
50821;SDS011;36794;51.212;6.980;2023-08-12T00:19:44;37.85;;;25.65;;
50821;SDS011;36794;51.212;6.980;2023-08-12T00:22:10;39.47;;;24.85;;
50821;SDS011;36794;51.212;6.980;2023-08-12T00:24:36;37.67;;;26.42;;
50821;SDS011;36794;51.212;6.980;2023-08-12T00:27:01;39.17;;;25.58;;
50821;SDS011;36794;51.212;6.980;2023-08-12T00:29:27;38.92;;;25.95;;
50821;SDS011;36794;51.212;6.980;2023-08-12T00:31:53;43.10;;;24.98;;
50821;SDS011;36794;51.212;6.980;2023-08-12T00:34:20;36.85;;;23.25;;
50821;SDS011;36794;51.212;6.980;2023-08-12T00:36:46;34.72;;;21.80;;
50821;SDS011;36794;51.212;6.980;2023-08-12T00:39:13;36.80;;;24.17;;
50821;SDS011;36794;51.212;6.980;2023-08-12T00:41:39;33.25;;;22.83;;
50821;SDS011;36794;51.212;6.980;2023-08-12T00:44:05;40.42;;;24.40;;
50821;SDS011;36794;51.212;6.980;2023-08-12T00:46:31;34.63;;;20.45;;
50821;SDS011;36794;51.212;6.980;2023-08-12T00:48:57;31.20;;;19.25;;
50821;SDS011;36794;51.212;6.980;2023-08-12T00:51:23;29.65;;;20.48;;
50821;SDS011;36794;51.212;6.980;2023-08-12T00:53:49;28.33;;;19.55;;
50821;SDS011;36794;51.212;6.980;2023-08-12T00:56:16;30.50;;;20.15;;
50821;SDS011;36794;51.212;6.980;2023-08-12T00:58:42;30.92;;;19.98;;
50821;SDS011;36794;51.212;6.980;2023-08-12T01:01:09;30.85;;;20.40;;
50821;SDS011;36794;51.212;6.980;2023-08-12T01:03:35;26.92;;;18.23;;
50821;SDS011;36794;51.212;6.980;2023-08-12T01:06:01;26.95;;;18.25;;
50821;SDS011;36794;51.212;6.980;2023-08-12T01:08:28;36.80;;;21.70;;
50821;SDS011;36794;51.212;6.980;2023-08-12T01:10:58;37.00;;;22.05;;
50821;SDS011;36794;51.212;6.980;2023-08-12T01:14:03;34.45;;;21.98;;
50821;SDS011;36794;51.212;6.980;2023-08-12T01:16:19;38.83;;;23.45;;
50821;SDS011;36794;51.212;6.980;2023-08-12T01:18:47;35.55;;;22.52;;
50821;SDS011;36794;51.212;6.980;2023-08-12T01:21:15;40.85;;;24.08;;
50821;SDS011;36794;51.212;6.980;2023-08-12T01:23:42;41.85;;;22.63;;
50821;SDS011;36794;51.212;6.980;2023-08-12T01:26:08;38.13;;;23.85;;
50821;SDS011;36794;51.212;6.980;2023-08-12T01:28:34;41.45;;;21.58;;
50821;SDS011;36794;51.212;6.980;2023-08-12T01:33:28;33.40;;;19.55;;
50821;SDS011;36794;51.212;6.980;2023-08-12T01:36:00;35.83;;;20.30;;
50821;SDS011;36794;51.212;6.980;2023-08-12T01:38:29;31.13;;;19.17;;
50821;SDS011;36794;51.212;6.980;2023-08-12T01:40:56;28.88;;;16.58;;
50821;SDS011;36794;51.212;6.980;2023-08-12T01:43:23;21.35;;;15.45;;
50821;SDS011;36794;51.212;6.980;2023-08-12T01:45:50;24.58;;;13.85;;
50821;SDS011;36794;51.212;6.980;2023-08-12T01:48:16;22.35;;;14.00;;
50821;SDS011;36794;51.212;6.980;2023-08-12T01:50:44;20.23;;;12.52;;
50821;SDS011;36794;51.212;6.980;2023-08-12T01:53:12;17.00;;;11.85;;
50821;SDS011;36794;51.212;6.980;2023-08-12T01:55:39;23.63;;;12.13;;
50821;SDS011;36794;51.212;6.980;2023-08-12T01:58:05;17.92;;;11.75;;
50821;SDS011;36794;51.212;6.980;2023-08-12T02:00:31;25.98;;;12.85;;
50821;SDS011;36794;51.212;6.980;2023-08-12T02:02:57;24.33;;;13.52;;
50821;SDS011;36794;51.212;6.980;2023-08-12T02:05:22;25.98;;;14.57;;
50821;SDS011;36794;51.212;6.980;2023-08-12T02:07:48;24.38;;;14.70;;
50821;SDS011;36794;51.212;6.980;2023-08-12T02:10:14;25.08;;;15.82;;
50821;SDS011;36794;51.212;6.980;2023-08-12T02:12:40;27.13;;;16.60;;
50821;SDS011;36794;51.212;6.980;2023-08-12T02:15:06;24.42;;;16.17;;
50821;SDS011;36794;51.212;6.980;2023-08-12T02:17:32;25.85;;;16.95;;
50821;SDS011;36794;51.212;6.980;2023-08-12T02:19:58;30.15;;;17.45;;
50821;SDS011;36794;51.212;6.980;2023-08-12T02:22:24;27.85;;;17.67;;
50821;SDS011;36794;51.212;6.980;2023-08-12T02:24:50;26.52;;;17.30;;
50821;SDS011;36794;51.212;6.980;2023-08-12T02:27:16;28.98;;;18.38;;
50821;SDS011;36794;51.212;6.980;2023-08-12T02:29:42;28.52;;;18.80;;
50821;SDS011;36794;51.212;6.980;2023-08-12T02:32:08;28.52;;;18.20;;
50821;SDS011;36794;51.212;6.980;2023-08-12T02:34:34;28.05;;;17.83;;
50821;SDS011;36794;51.212;6.980;2023-08-12T02:37:00;29.98;;;17.70;;
50821;SDS011;36794;51.212;6.980;2023-08-12T02:39:26;25.67;;;16.30;;
50821;SDS011;36794;51.212;6.980;2023-08-12T02:41:52;25.45;;;16.42;;
50821;SDS011;36794;51.212;6.980;2023-08-12T02:44:18;26.83;;;15.50;;
50821;SDS011;36794;51.212;6.980;2023-08-12T02:46:44;25.35;;;14.77;;
50821;SDS011;36794;51.212;6.980;2023-08-12T02:49:10;26.70;;;14.93;;
50821;SDS011;36794;51.212;6.980;2023-08-12T02:51:36;24.75;;;14.88;;
50821;SDS011;36794;51.212;6.980;2023-08-12T02:54:02;20.75;;;15.27;;
50821;SDS011;36794;51.212;6.980;2023-08-12T02:56:28;30.98;;;15.95;;
50821;SDS011;36794;51.212;6.980;2023-08-12T02:58:54;29.73;;;15.50;;
50821;SDS011;36794;51.212;6.980;2023-08-12T03:01:20;24.35;;;14.85;;
50821;SDS011;36794;51.212;6.980;2023-08-12T03:03:46;25.98;;;15.13;;
50821;SDS011;36794;51.212;6.980;2023-08-12T03:06:12;28.95;;;14.77;;
50821;SDS011;36794;51.212;6.980;2023-08-12T03:08:38;26.50;;;15.48;;
50821;SDS011;36794;51.212;6.980;2023-08-12T03:11:04;26.05;;;14.43;;
50821;SDS011;36794;51.212;6.980;2023-08-12T03:13:30;23.70;;;14.40;;
50821;SDS011;36794;51.212;6.980;2023-08-12T03:15:56;27.67;;;15.80;;
50821;SDS011;36794;51.212;6.980;2023-08-12T03:18:22;26.92;;;15.25;;
50821;SDS011;36794;51.212;6.980;2023-08-12T03:20:48;25.95;;;15.05;;
50821;SDS011;36794;51.212;6.980;2023-08-12T03:23:14;24.00;;;14.80;;
50821;SDS011;36794;51.212;6.980;2023-08-12T03:25:40;30.90;;;15.68;;
50821;SDS011;36794;51.212;6.980;2023-08-12T03:28:06;22.95;;;14.50;;
50821;SDS011;36794;51.212;6.980;2023-08-12T03:30:32;32.85;;;15.63;;
50821;SDS011;36794;51.212;6.980;2023-08-12T03:32:58;24.35;;;14.30;;
50821;SDS011;36794;51.212;6.980;2023-08-12T03:35:24;22.73;;;15.20;;
50821;SDS011;36794;51.212;6.980;2023-08-12T03:37:50;25.73;;;15.27;;
50821;SDS011;36794;51.212;6.980;2023-08-12T03:40:17;31.10;;;15.70;;
50821;SDS011;36794;51.212;6.980;2023-08-12T03:42:43;27.35;;;14.60;;
50821;SDS011;36794;51.212;6.980;2023-08-12T03:45:09;23.33;;;14.43;;
50821;SDS011;36794;51.212;6.980;2023-08-12T03:47:35;23.48;;;14.35;;
50821;SDS011;36794;51.212;6.980;2023-08-12T03:50:01;25.88;;;14.48;;
50821;SDS011;36794;51.212;6.980;2023-08-12T03:52:27;19.58;;;14.15;;
50821;SDS011;36794;51.212;6.980;2023-08-12T03:54:53;28.83;;;15.43;;
50821;SDS011;36794;51.212;6.980;2023-08-12T03:57:19;19.95;;;14.18;;
50821;SDS011;36794;51.212;6.980;2023-08-12T03:59:45;23.67;;;15.77;;
50821;SDS011;36794;51.212;6.980;2023-08-12T04:02:11;25.58;;;14.55;;
50821;SDS011;36794;51.212;6.980;2023-08-12T04:04:37;22.58;;;13.90;;
50821;SDS011;36794;51.212;6.980;2023-08-12T04:07:03;20.23;;;14.15;;
50821;SDS011;36794;51.212;6.980;2023-08-12T04:09:29;20.50;;;13.65;;
50821;SDS011;36794;51.212;6.980;2023-08-12T04:11:55;19.90;;;13.98;;
50821;SDS011;36794;51.212;6.980;2023-08-12T04:14:21;23.92;;;14.90;;
50821;SDS011;36794;51.212;6.980;2023-08-12T04:16:47;21.05;;;14.27;;
50821;SDS011;36794;51.212;6.980;2023-08-12T04:19:13;23.67;;;15.02;;
50821;SDS011;36794;51.212;6.980;2023-08-12T04:21:39;23.30;;;14.73;;
50821;SDS011;36794;51.212;6.980;2023-08-12T04:24:05;21.30;;;14.88;;
50821;SDS011;36794;51.212;6.980;2023-08-12T04:26:31;19.92;;;13.35;;
50821;SDS011;36794;51.212;6.980;2023-08-12T04:28:57;22.45;;;13.90;;
50821;SDS011;36794;51.212;6.980;2023-08-12T04:31:23;25.83;;;13.93;;
50821;SDS011;36794;51.212;6.980;2023-08-12T04:33:49;20.30;;;13.25;;
50821;SDS011;36794;51.212;6.980;2023-08-12T04:36:17;27.17;;;13.48;;
50821;SDS011;36794;51.212;6.980;2023-08-12T04:38:43;18.55;;;12.35;;
50821;SDS011;36794;51.212;6.980;2023-08-12T04:41:09;24.98;;;12.93;;
50821;SDS011;36794;51.212;6.980;2023-08-12T04:43:35;19.80;;;12.50;;
50821;SDS011;36794;51.212;6.980;2023-08-12T04:46:01;21.35;;;11.65;;
50821;SDS011;36794;51.212;6.980;2023-08-12T04:48:27;21.80;;;11.65;;
50821;SDS011;36794;51.212;6.980;2023-08-12T04:50:53;13.82;;;11.05;;
50821;SDS011;36794;51.212;6.980;2023-08-12T04:53:24;17.27;;;11.35;;
50821;SDS011;36794;51.212;6.980;2023-08-12T04:55:50;16.27;;;11.30;;
50821;SDS011;36794;51.212;6.980;2023-08-12T04:58:16;16.95;;;11.30;;
50821;SDS011;36794;51.212;6.980;2023-08-12T05:00:42;19.17;;;11.50;;
50821;SDS011;36794;51.212;6.980;2023-08-12T05:03:08;15.32;;;9.60;;
50821;SDS011;36794;51.212;6.980;2023-08-12T05:05:35;17.88;;;10.40;;
50821;SDS011;36794;51.212;6.980;2023-08-12T05:08:01;15.00;;;10.88;;
50821;SDS011;36794;51.212;6.980;2023-08-12T05:10:27;14.98;;;9.40;;
50821;SDS011;36794;51.212;6.980;2023-08-12T05:12:54;17.23;;;8.98;;
50821;SDS011;36794;51.212;6.980;2023-08-12T05:15:20;15.20;;;9.48;;
50821;SDS011;36794;51.212;6.980;2023-08-12T05:17:46;16.65;;;9.25;;
50821;SDS011;36794;51.212;6.980;2023-08-12T05:20:12;18.58;;;9.32;;
50821;SDS011;36794;51.212;6.980;2023-08-12T05:22:38;16.33;;;9.18;;
50821;SDS011;36794;51.212;6.980;2023-08-12T05:25:04;12.63;;;8.68;;
50821;SDS011;36794;51.212;6.980;2023-08-12T05:27:30;12.57;;;8.55;;
50821;SDS011;36794;51.212;6.980;2023-08-12T05:29:56;13.52;;;8.85;;
50821;SDS011;36794;51.212;6.980;2023-08-12T05:32:22;12.35;;;8.52;;
50821;SDS011;36794;51.212;6.980;2023-08-12T05:34:52;16.05;;;8.95;;
50821;SDS011;36794;51.212;6.980;2023-08-12T05:37:18;16.38;;;9.00;;
50821;SDS011;36794;51.212;6.980;2023-08-12T05:39:44;15.18;;;8.93;;
50821;SDS011;36794;51.212;6.980;2023-08-12T05:42:10;18.52;;;8.60;;
50821;SDS011;36794;51.212;6.980;2023-08-12T05:44:36;12.13;;;8.52;;
50821;SDS011;36794;51.212;6.980;2023-08-12T05:47:02;12.50;;;8.00;;
50821;SDS011;36794;51.212;6.980;2023-08-12T05:49:27;17.67;;;8.57;;
50821;SDS011;36794;51.212;6.980;2023-08-12T05:51:53;13.02;;;7.63;;
50821;SDS011;36794;51.212;6.980;2023-08-12T05:54:19;12.18;;;7.75;;
50821;SDS011;36794;51.212;6.980;2023-08-12T05:56:45;9.88;;;7.15;;
50821;SDS011;36794;51.212;6.980;2023-08-12T05:59:11;11.95;;;7.05;;
50821;SDS011;36794;51.212;6.980;2023-08-12T06:01:37;8.90;;;6.93;;
50821;SDS011;36794;51.212;6.980;2023-08-12T06:04:03;13.27;;;7.32;;
50821;SDS011;36794;51.212;6.980;2023-08-12T06:06:29;12.10;;;6.30;;
50821;SDS011;36794;51.212;6.980;2023-08-12T06:08:55;10.40;;;6.97;;
50821;SDS011;36794;51.212;6.980;2023-08-12T06:11:21;11.40;;;6.60;;
50821;SDS011;36794;51.212;6.980;2023-08-12T06:13:47;11.25;;;6.30;;
50821;SDS011;36794;51.212;6.980;2023-08-12T06:16:13;10.10;;;6.05;;
50821;SDS011;36794;51.212;6.980;2023-08-12T06:18:39;13.13;;;6.57;;
50821;SDS011;36794;51.212;6.980;2023-08-12T06:21:05;9.63;;;6.43;;
50821;SDS011;36794;51.212;6.980;2023-08-12T06:23:31;9.23;;;6.40;;
50821;SDS011;36794;51.212;6.980;2023-08-12T06:25:57;9.38;;;6.68;;
50821;SDS011;36794;51.212;6.980;2023-08-12T06:28:23;12.20;;;6.50;;
50821;SDS011;36794;51.212;6.980;2023-08-12T06:30:49;11.45;;;6.85;;
50821;SDS011;36794;51.212;6.980;2023-08-12T06:33:15;12.65;;;7.20;;
50821;SDS011;36794;51.212;6.980;2023-08-12T06:35:41;10.20;;;7.45;;
50821;SDS011;36794;51.212;6.980;2023-08-12T06:38:07;12.48;;;7.93;;
50821;SDS011;36794;51.212;6.980;2023-08-12T06:40:37;11.70;;;8.30;;
50821;SDS011;36794;51.212;6.980;2023-08-12T06:43:03;16.00;;;8.60;;
50821;SDS011;36794;51.212;6.980;2023-08-12T06:45:29;12.85;;;9.00;;
50821;SDS011;36794;51.212;6.980;2023-08-12T06:47:55;11.90;;;8.15;;
50821;SDS011;36794;51.212;6.980;2023-08-12T06:50:21;12.90;;;8.35;;
50821;SDS011;36794;51.212;6.980;2023-08-12T06:52:47;17.08;;;8.45;;
50821;SDS011;36794;51.212;6.980;2023-08-12T06:55:15;14.45;;;8.65;;
50821;SDS011;36794;51.212;6.980;2023-08-12T06:57:41;15.45;;;9.35;;
50821;SDS011;36794;51.212;6.980;2023-08-12T07:00:09;15.10;;;9.57;;
50821;SDS011;36794;51.212;6.980;2023-08-12T07:02:35;14.20;;;8.93;;
50821;SDS011;36794;51.212;6.980;2023-08-12T07:05:01;11.48;;;8.48;;
50821;SDS011;36794;51.212;6.980;2023-08-12T07:07:27;11.60;;;8.38;;
50821;SDS011;36794;51.212;6.980;2023-08-12T07:09:53;13.00;;;8.38;;
50821;SDS011;36794;51.212;6.980;2023-08-12T07:12:19;13.13;;;8.82;;
50821;SDS011;36794;51.212;6.980;2023-08-12T07:14:45;10.68;;;7.43;;
50821;SDS011;36794;51.212;6.980;2023-08-12T07:17:11;9.55;;;7.30;;
50821;SDS011;36794;51.212;6.980;2023-08-12T07:19:37;12.20;;;7.97;;
50821;SDS011;36794;51.212;6.980;2023-08-12T07:22:03;12.30;;;7.80;;
50821;SDS011;36794;51.212;6.980;2023-08-12T07:24:29;7.72;;;6.57;;
50821;SDS011;36794;51.212;6.980;2023-08-12T07:26:55;8.13;;;7.20;;
50821;SDS011;36794;51.212;6.980;2023-08-12T07:29:21;8.57;;;6.68;;
50821;SDS011;36794;51.212;6.980;2023-08-12T07:31:47;8.10;;;6.63;;
50821;SDS011;36794;51.212;6.980;2023-08-12T07:34:13;7.72;;;6.38;;
50821;SDS011;36794;51.212;6.980;2023-08-12T07:36:39;10.50;;;7.30;;
50821;SDS011;36794;51.212;6.980;2023-08-12T07:39:06;9.10;;;7.03;;
50821;SDS011;36794;51.212;6.980;2023-08-12T07:41:32;11.38;;;7.28;;
50821;SDS011;36794;51.212;6.980;2023-08-12T07:43:58;8.93;;;6.90;;
50821;SDS011;36794;51.212;6.980;2023-08-12T07:46:24;8.27;;;7.47;;
50821;SDS011;36794;51.212;6.980;2023-08-12T07:48:50;11.70;;;7.80;;
50821;SDS011;36794;51.212;6.980;2023-08-12T07:51:16;10.32;;;7.25;;
50821;SDS011;36794;51.212;6.980;2023-08-12T07:53:42;9.10;;;7.65;;
50821;SDS011;36794;51.212;6.980;2023-08-12T07:56:08;11.15;;;7.95;;
50821;SDS011;36794;51.212;6.980;2023-08-12T07:58:34;8.35;;;7.53;;
50821;SDS011;36794;51.212;6.980;2023-08-12T08:01:00;11.93;;;8.20;;
50821;SDS011;36794;51.212;6.980;2023-08-12T08:03:26;12.02;;;7.72;;
50821;SDS011;36794;51.212;6.980;2023-08-12T08:05:52;10.20;;;7.60;;
50821;SDS011;36794;51.212;6.980;2023-08-12T08:08:18;10.40;;;7.53;;
50821;SDS011;36794;51.212;6.980;2023-08-12T08:10:45;9.45;;;7.70;;
50821;SDS011;36794;51.212;6.980;2023-08-12T08:13:11;8.85;;;7.22;;
50821;SDS011;36794;51.212;6.980;2023-08-12T08:15:37;10.98;;;7.18;;
50821;SDS011;36794;51.212;6.980;2023-08-12T08:18:03;11.75;;;7.60;;
50821;SDS011;36794;51.212;6.980;2023-08-12T08:20:29;14.25;;;8.10;;
50821;SDS011;36794;51.212;6.980;2023-08-12T08:22:55;11.23;;;8.02;;
50821;SDS011;36794;51.212;6.980;2023-08-12T08:25:21;13.25;;;8.23;;
50821;SDS011;36794;51.212;6.980;2023-08-12T08:27:47;12.20;;;7.60;;
50821;SDS011;36794;51.212;6.980;2023-08-12T08:30:13;8.55;;;6.88;;
50821;SDS011;36794;51.212;6.980;2023-08-12T08:32:39;10.25;;;6.22;;
50821;SDS011;36794;51.212;6.980;2023-08-12T08:35:05;9.43;;;6.75;;
50821;SDS011;36794;51.212;6.980;2023-08-12T08:37:31;8.38;;;6.10;;
50821;SDS011;36794;51.212;6.980;2023-08-12T08:39:57;13.45;;;5.53;;
50821;SDS011;36794;51.212;6.980;2023-08-12T08:42:23;7.43;;;5.28;;
50821;SDS011;36794;51.212;6.980;2023-08-12T08:44:52;6.22;;;5.05;;
50821;SDS011;36794;51.212;6.980;2023-08-12T08:47:24;7.18;;;5.03;;
50821;SDS011;36794;51.212;6.980;2023-08-12T08:49:51;11.05;;;5.00;;
50821;SDS011;36794;51.212;6.980;2023-08-12T08:52:17;6.97;;;4.72;;
50821;SDS011;36794;51.212;6.980;2023-08-12T08:54:43;11.60;;;4.43;;
50821;SDS011;36794;51.212;6.980;2023-08-12T08:57:09;6.82;;;3.70;;
50821;SDS011;36794;51.212;6.980;2023-08-12T08:59:37;8.93;;;4.30;;
50821;SDS011;36794;51.212;6.980;2023-08-12T09:02:03;6.93;;;3.92;;
50821;SDS011;36794;51.212;6.980;2023-08-12T09:04:30;10.95;;;3.88;;
50821;SDS011;36794;51.212;6.980;2023-08-12T09:06:56;7.03;;;3.80;;
50821;SDS011;36794;51.212;6.980;2023-08-12T09:09:23;5.00;;;3.67;;
50821;SDS011;36794;51.212;6.980;2023-08-12T09:11:51;9.75;;;4.55;;
50821;SDS011;36794;51.212;6.980;2023-08-12T09:14:18;8.07;;;3.90;;
50821;SDS011;36794;51.212;6.980;2023-08-12T09:16:44;7.35;;;4.07;;
50821;SDS011;36794;51.212;6.980;2023-08-12T09:19:10;6.55;;;3.45;;
50821;SDS011;36794;51.212;6.980;2023-08-12T09:21:36;5.95;;;3.03;;
50821;SDS011;36794;51.212;6.980;2023-08-12T09:24:02;7.85;;;3.17;;
50821;SDS011;36794;51.212;6.980;2023-08-12T09:26:32;12.15;;;3.05;;
50821;SDS011;36794;51.212;6.980;2023-08-12T09:28:58;7.32;;;3.28;;
50821;SDS011;36794;51.212;6.980;2023-08-12T09:31:26;5.38;;;3.15;;
50821;SDS011;36794;51.212;6.980;2023-08-12T09:33:53;9.02;;;3.30;;
50821;SDS011;36794;51.212;6.980;2023-08-12T09:36:22;3.95;;;2.90;;
50821;SDS011;36794;51.212;6.980;2023-08-12T09:38:48;6.20;;;3.05;;
50821;SDS011;36794;51.212;6.980;2023-08-12T09:41:14;4.22;;;2.80;;
50821;SDS011;36794;51.212;6.980;2023-08-12T09:43:41;7.03;;;3.30;;
50821;SDS011;36794;51.212;6.980;2023-08-12T09:46:10;6.78;;;2.45;;
50821;SDS011;36794;51.212;6.980;2023-08-12T09:48:37;3.90;;;2.20;;
50821;SDS011;36794;51.212;6.980;2023-08-12T09:51:03;2.85;;;2.30;;
50821;SDS011;36794;51.212;6.980;2023-08-12T09:53:31;4.22;;;2.20;;
50821;SDS011;36794;51.212;6.980;2023-08-12T09:55:59;4.22;;;2.75;;
50821;SDS011;36794;51.212;6.980;2023-08-12T09:58:28;6.57;;;2.60;;
50821;SDS011;36794;51.212;6.980;2023-08-12T10:00:54;6.30;;;2.30;;
50821;SDS011;36794;51.212;6.980;2023-08-12T10:03:21;4.13;;;2.10;;
50821;SDS011;36794;51.212;6.980;2023-08-12T10:05:47;7.45;;;2.30;;
50821;SDS011;36794;51.212;6.980;2023-08-12T10:08:14;3.33;;;2.08;;
50821;SDS011;36794;51.212;6.980;2023-08-12T10:10:41;4.72;;;2.20;;
50821;SDS011;36794;51.212;6.980;2023-08-12T10:13:07;6.70;;;1.90;;
50821;SDS011;36794;51.212;6.980;2023-08-12T10:15:34;4.70;;;1.92;;
50821;SDS011;36794;51.212;6.980;2023-08-12T10:18:00;4.45;;;2.13;;
50821;SDS011;36794;51.212;6.980;2023-08-12T10:20:26;3.50;;;1.95;;
50821;SDS011;36794;51.212;6.980;2023-08-12T10:22:53;4.45;;;2.15;;
50821;SDS011;36794;51.212;6.980;2023-08-12T10:25:20;4.65;;;2.10;;
50821;SDS011;36794;51.212;6.980;2023-08-12T10:27:49;4.68;;;2.17;;
50821;SDS011;36794;51.212;6.980;2023-08-12T10:30:15;5.05;;;2.03;;
50821;SDS011;36794;51.212;6.980;2023-08-12T10:32:41;4.93;;;2.20;;
50821;SDS011;36794;51.212;6.980;2023-08-12T10:35:08;6.25;;;2.50;;
50821;SDS011;36794;51.212;6.980;2023-08-12T10:37:34;20.88;;;3.42;;
50821;SDS011;36794;51.212;6.980;2023-08-12T10:40:04;5.65;;;2.47;;
50821;SDS011;36794;51.212;6.980;2023-08-12T10:42:40;6.80;;;2.10;;
50821;SDS011;36794;51.212;6.980;2023-08-12T10:45:09;5.35;;;2.03;;
50821;SDS011;36794;51.212;6.980;2023-08-12T10:47:40;6.72;;;2.08;;
50821;SDS011;36794;51.212;6.980;2023-08-12T10:50:11;3.72;;;1.50;;
50821;SDS011;36794;51.212;6.980;2023-08-12T10:52:42;1.92;;;1.20;;
50821;SDS011;36794;51.212;6.980;2023-08-12T10:55:17;2.67;;;1.00;;
50821;SDS011;36794;51.212;6.980;2023-08-12T10:57:43;5.38;;;1.33;;
50821;SDS011;36794;51.212;6.980;2023-08-12T11:00:16;5.10;;;1.30;;
50821;SDS011;36794;51.212;6.980;2023-08-12T11:02:45;4.50;;;1.58;;
50821;SDS011;36794;51.212;6.980;2023-08-12T11:05:14;4.63;;;1.92;;
50821;SDS011;36794;51.212;6.980;2023-08-12T11:07:40;6.70;;;1.50;;
50821;SDS011;36794;51.212;6.980;2023-08-12T11:10:21;11.52;;;1.77;;
50821;SDS011;36794;51.212;6.980;2023-08-12T11:15:37;10.57;;;1.50;;
50821;SDS011;36794;51.212;6.980;2023-08-12T11:18:04;3.85;;;1.48;;
50821;SDS011;36794;51.212;6.980;2023-08-12T11:20:31;6.35;;;2.30;;
50821;SDS011;36794;51.212;6.980;2023-08-12T11:22:57;7.53;;;1.88;;
50821;SDS011;36794;51.212;6.980;2023-08-12T11:25:27;2.67;;;1.10;;
50821;SDS011;36794;51.212;6.980;2023-08-12T11:27:53;4.45;;;0.93;;
50821;SDS011;36794;51.212;6.980;2023-08-12T11:30:20;2.05;;;1.10;;
50821;SDS011;36794;51.212;6.980;2023-08-12T11:32:47;6.53;;;2.58;;
50821;SDS011;36794;51.212;6.980;2023-08-12T11:35:13;2.15;;;1.00;;
50821;SDS011;36794;51.212;6.980;2023-08-12T11:37:40;4.05;;;1.10;;
50821;SDS011;36794;51.212;6.980;2023-08-12T11:40:07;1.42;;;0.80;;
50821;SDS011;36794;51.212;6.980;2023-08-12T11:42:39;1.90;;;0.90;;
50821;SDS011;36794;51.212;6.980;2023-08-12T11:45:06;3.05;;;1.20;;
50821;SDS011;36794;51.212;6.980;2023-08-12T11:47:32;2.67;;;1.30;;
50821;SDS011;36794;51.212;6.980;2023-08-12T11:49:58;2.22;;;1.20;;
50821;SDS011;36794;51.212;6.980;2023-08-12T11:52:24;2.30;;;1.00;;
50821;SDS011;36794;51.212;6.980;2023-08-12T11:54:50;1.60;;;0.90;;
50821;SDS011;36794;51.212;6.980;2023-08-12T11:57:16;1.75;;;0.90;;
50821;SDS011;36794;51.212;6.980;2023-08-12T11:59:42;3.83;;;0.70;;
50821;SDS011;36794;51.212;6.980;2023-08-12T12:02:09;2.40;;;0.90;;
50821;SDS011;36794;51.212;6.980;2023-08-12T12:04:35;4.68;;;0.82;;
50821;SDS011;36794;51.212;6.980;2023-08-12T12:07:01;2.05;;;0.80;;
50821;SDS011;36794;51.212;6.980;2023-08-12T12:09:31;2.45;;;0.75;;
50821;SDS011;36794;51.212;6.980;2023-08-12T12:11:57;1.95;;;0.98;;
50821;SDS011;36794;51.212;6.980;2023-08-12T12:14:24;2.83;;;0.80;;
50821;SDS011;36794;51.212;6.980;2023-08-12T12:16:50;1.80;;;0.80;;
50821;SDS011;36794;51.212;6.980;2023-08-12T12:19:20;1.65;;;0.90;;
50821;SDS011;36794;51.212;6.980;2023-08-12T12:21:50;2.78;;;0.77;;
50821;SDS011;36794;51.212;6.980;2023-08-12T12:24:16;1.70;;;0.80;;
50821;SDS011;36794;51.212;6.980;2023-08-12T12:26:43;2.13;;;0.93;;
50821;SDS011;36794;51.212;6.980;2023-08-12T12:29:09;2.35;;;1.10;;
50821;SDS011;36794;51.212;6.980;2023-08-12T12:31:37;3.05;;;0.70;;
50821;SDS011;36794;51.212;6.980;2023-08-12T12:34:03;2.83;;;0.80;;
50821;SDS011;36794;51.212;6.980;2023-08-12T12:36:30;2.00;;;0.70;;
50821;SDS011;36794;51.212;6.980;2023-08-12T12:38:56;3.05;;;0.77;;
50821;SDS011;36794;51.212;6.980;2023-08-12T12:41:22;2.08;;;0.73;;
50821;SDS011;36794;51.212;6.980;2023-08-12T12:43:48;2.25;;;1.05;;
50821;SDS011;36794;51.212;6.980;2023-08-12T12:46:15;2.78;;;0.80;;
50821;SDS011;36794;51.212;6.980;2023-08-12T12:48:41;2.05;;;0.70;;
50821;SDS011;36794;51.212;6.980;2023-08-12T12:51:07;4.05;;;0.70;;
50821;SDS011;36794;51.212;6.980;2023-08-12T12:53:35;2.30;;;1.05;;
50821;SDS011;36794;51.212;6.980;2023-08-12T12:56:01;1.90;;;0.60;;
50821;SDS011;36794;51.212;6.980;2023-08-12T12:58:30;3.13;;;0.60;;
50821;SDS011;36794;51.212;6.980;2023-08-12T13:00:59;2.83;;;0.45;;
50821;SDS011;36794;51.212;6.980;2023-08-12T13:03:25;0.40;;;0.40;;
50821;SDS011;36794;51.212;6.980;2023-08-12T13:05:51;3.00;;;0.77;;
50821;SDS011;36794;51.212;6.980;2023-08-12T13:08:18;4.40;;;0.70;;
50821;SDS011;36794;51.212;6.980;2023-08-12T13:10:50;8.35;;;1.55;;
50821;SDS011;36794;51.212;6.980;2023-08-12T13:13:16;5.25;;;1.75;;
50821;SDS011;36794;51.212;6.980;2023-08-12T13:15:42;8.60;;;2.78;;
50821;SDS011;36794;51.212;6.980;2023-08-12T13:18:08;4.22;;;2.05;;
50821;SDS011;36794;51.212;6.980;2023-08-12T13:20:35;8.27;;;2.60;;
50821;SDS011;36794;51.212;6.980;2023-08-12T13:23:01;8.35;;;2.50;;
50821;SDS011;36794;51.212;6.980;2023-08-12T13:25:31;4.97;;;2.58;;
50821;SDS011;36794;51.212;6.980;2023-08-12T13:28:01;4.93;;;2.53;;
50821;SDS011;36794;51.212;6.980;2023-08-12T13:30:28;4.20;;;3.20;;
50821;SDS011;36794;51.212;6.980;2023-08-12T13:32:54;5.55;;;3.25;;
50821;SDS011;36794;51.212;6.980;2023-08-12T13:35:21;5.97;;;3.47;;
50821;SDS011;36794;51.212;6.980;2023-08-12T13:37:47;6.57;;;3.42;;
50821;SDS011;36794;51.212;6.980;2023-08-12T13:40:13;4.53;;;3.53;;
50821;SDS011;36794;51.212;6.980;2023-08-12T13:42:40;6.25;;;3.83;;
50821;SDS011;36794;51.212;6.980;2023-08-12T13:45:06;7.18;;;4.75;;
50821;SDS011;36794;51.212;6.980;2023-08-12T13:47:33;4.72;;;3.90;;
50821;SDS011;36794;51.212;6.980;2023-08-12T13:49:59;6.97;;;4.40;;
50821;SDS011;36794;51.212;6.980;2023-08-12T13:52:25;6.15;;;4.47;;
50821;SDS011;36794;51.212;6.980;2023-08-12T13:54:51;6.20;;;4.07;;
50821;SDS011;36794;51.212;6.980;2023-08-12T13:57:17;5.90;;;4.00;;
50821;SDS011;36794;51.212;6.980;2023-08-12T13:59:43;9.23;;;3.90;;
50821;SDS011;36794;51.212;6.980;2023-08-12T14:02:10;4.05;;;3.65;;
50821;SDS011;36794;51.212;6.980;2023-08-12T14:04:36;4.40;;;3.70;;
50821;SDS011;36794;51.212;6.980;2023-08-12T14:07:02;4.38;;;3.97;;
50821;SDS011;36794;51.212;6.980;2023-08-12T14:09:28;4.75;;;3.85;;
50821;SDS011;36794;51.212;6.980;2023-08-12T14:11:54;6.35;;;4.32;;
50821;SDS011;36794;51.212;6.980;2023-08-12T14:14:20;5.45;;;4.30;;
50821;SDS011;36794;51.212;6.980;2023-08-12T14:16:46;4.95;;;3.92;;
50821;SDS011;36794;51.212;6.980;2023-08-12T14:19:12;8.45;;;4.30;;
50821;SDS011;36794;51.212;6.980;2023-08-12T14:21:41;5.30;;;4.80;;
50821;SDS011;36794;51.212;6.980;2023-08-12T14:24:07;6.00;;;4.55;;
50821;SDS011;36794;51.212;6.980;2023-08-12T14:26:34;5.63;;;5.03;;
50821;SDS011;36794;51.212;6.980;2023-08-12T14:29:00;9.13;;;4.50;;
50821;SDS011;36794;51.212;6.980;2023-08-12T14:31:26;5.43;;;4.20;;
50821;SDS011;36794;51.212;6.980;2023-08-12T14:33:52;3.75;;;3.30;;
50821;SDS011;36794;51.212;6.980;2023-08-12T14:36:18;8.43;;;2.97;;